Terminal Aerodrome Forecast
Issued by NWS

Home | Current Version | Previous Version | Text Only | Print | Product List | Glossary On
Versions: 1 2 3 4 5 6 7 8 9 10 11 12 13 14 15 16
992
FTUS43 KGRB 050535
TAFCWA
TAF
KCWA 050535Z 0506/0606 24008KT P6SM SCT005 OVC010
      TEMPO 0506/0508 4SM BR BKN005
     FM050800 25008KT P6SM SCT012 OVC020
     FM051200 22004KT 4SM BR BKN250
      TEMPO 0512/0514 2SM BR
     FM051500 17006KT P6SM BKN250
     FM051800 16008KT P6SM BKN090
     FM052300 15009KT P6SM BKN110 WS015/20040KT
      TEMPO 0605/0606 BKN040
      AMD LTD TO CLD VIS AND WIND TIL 051100=

USA.gov is the U.S. government's official web portal to all federal, state and local government web resources and services.